createdAt,value
2017-07-15T00:02:24.976Z,87.40
2017-07-15T00:04:53.249Z,87.40
2017-07-15T00:07:21.580Z,86.80
2017-07-15T00:09:49.861Z,87.20
2017-07-15T00:12:18.136Z,87.30
2017-07-15T00:14:46.457Z,87.80
2017-07-15T00:17:14.732Z,87.20
2017-07-15T00:19:43.008Z,87.40
2017-07-15T00:22:11.324Z,86.80
2017-07-15T00:24:40.365Z,85.90
2017-07-15T00:27:08.652Z,85.80
2017-07-15T00:29:36.960Z,85.70
2017-07-15T00:32:05.237Z,85.80
2017-07-15T00:34:33.516Z,85.80
2017-07-15T00:37:01.828Z,85.80
2017-07-15T00:39:30.105Z,87.30
2017-07-15T00:41:58.390Z,86.80
2017-07-15T00:44:26.727Z,85.60
2017-07-15T00:46:55.006Z,86.60
2017-07-15T00:49:23.276Z,87.10
2017-07-15T00:51:51.597Z,87.40
2017-07-15T00:54:19.881Z,87.10
2017-07-15T00:56:48.148Z,86.70
2017-07-15T00:59:16.464Z,86.60
2017-07-15T01:01:45.509Z,84.20
2017-07-15T01:04:13.784Z,84.10
2017-07-15T01:06:42.113Z,84.40
2017-07-15T01:09:10.396Z,85.20
2017-07-15T01:11:38.677Z,85.80
2017-07-15T01:14:07.004Z,85.70
2017-07-15T01:16:35.273Z,85.70
2017-07-15T01:19:03.552Z,85.70
2017-07-15T01:21:31.960Z,85.80
2017-07-15T01:24:00.232Z,85.80
2017-07-15T01:26:28.548Z,85.70
2017-07-15T01:28:56.832Z,86.00
2017-07-15T01:31:25.116Z,85.80
2017-07-15T01:33:53.389Z,85.30
2017-07-15T01:36:22.629Z,85.80
2017-07-15T01:38:51.680Z,85.80
2017-07-15T01:41:19.961Z,85.70
2017-07-15T01:43:49.060Z,85.70
2017-07-15T01:46:17.340Z,85.60
2017-07-15T01:48:45.617Z,84.40
2017-07-15T01:51:13.948Z,85.40
2017-07-15T01:53:42.233Z,84.60
2017-07-15T01:56:10.613Z,85.00
2017-07-15T01:58:38.924Z,84.60
2017-07-15T02:01:07.221Z,84.20
2017-07-15T02:03:35.492Z,84.00
2017-07-15T02:06:03.812Z,84.00
2017-07-15T02:08:32.859Z,84.30
2017-07-15T02:11:01.143Z,84.20
2017-07-15T02:13:30.328Z,85.30
2017-07-15T02:15:59.033Z,85.30
2017-07-15T02:18:27.349Z,85.30
2017-07-15T02:20:56.545Z,85.20
2017-07-15T02:23:25.579Z,85.90
2017-07-15T02:25:53.863Z,85.90
2017-07-15T02:28:22.189Z,85.30
2017-07-15T02:30:50.465Z,86.40
2017-07-15T02:33:18.740Z,86.00
2017-07-15T02:35:47.056Z,86.00
2017-07-15T02:38:15.332Z,86.00
2017-07-15T02:40:43.608Z,85.90
2017-07-15T02:43:13.564Z,86.20
2017-07-15T02:45:42.619Z,84.50
2017-07-15T02:48:10.897Z,84.40
2017-07-15T02:50:40.092Z,85.00
2017-07-15T02:53:08.370Z,84.90
2017-07-15T02:55:36.648Z,85.00
2017-07-15T02:58:04.974Z,85.00
2017-07-15T03:00:34.011Z,83.70
2017-07-15T03:03:02.288Z,83.60
2017-07-15T03:05:30.596Z,83.50
2017-07-15T03:07:58.872Z,84.00
2017-07-15T03:10:27.144Z,83.20
2017-07-15T03:12:55.445Z,83.50
2017-07-15T03:15:24.484Z,84.70
2017-07-15T03:17:52.757Z,84.70
2017-07-15T03:20:21.249Z,83.50
2017-07-15T03:22:50.307Z,83.90
2017-07-15T03:25:18.593Z,83.80
2017-07-15T03:27:47.676Z,85.40
2017-07-15T03:30:16.732Z,83.60
2017-07-15T03:32:45.012Z,83.50
2017-07-15T03:35:14.093Z,83.50
2017-07-15T03:37:43.129Z,83.40
2017-07-15T03:40:11.408Z,83.40
2017-07-15T03:42:39.739Z,83.10
2017-07-15T03:45:08.004Z,84.40
2017-07-15T03:47:36.272Z,84.30
2017-07-15T03:50:04.581Z,83.40
2017-07-15T03:52:33.616Z,83.10
2017-07-15T03:55:01.880Z,83.10
2017-07-15T03:57:30.192Z,83.70
2017-07-15T03:59:59.225Z,82.30
2017-07-15T04:02:28.499Z,82.00
2017-07-15T04:04:56.796Z,81.90
2017-07-15T04:07:25.065Z,81.50
2017-07-15T04:09:54.096Z,82.80
2017-07-15T04:12:22.400Z,82.00
2017-07-15T04:14:50.684Z,82.40
2017-07-15T04:17:18.957Z,82.30
2017-07-15T04:19:47.272Z,80.90
2017-07-15T04:22:15.544Z,81.60
2017-07-15T04:24:43.829Z,81.30
2017-07-15T04:27:12.145Z,81.80
2017-07-15T04:29:40.417Z,82.00
2017-07-15T04:32:08.689Z,82.10
2017-07-15T04:34:36.997Z,81.70
2017-07-15T04:37:05.268Z,81.90
2017-07-15T04:39:33.536Z,81.70
2017-07-15T04:42:02.228Z,82.00
2017-07-15T04:44:30.508Z,82.10
2017-07-15T04:46:58.772Z,82.30
2017-07-15T04:49:27.861Z,81.40
2017-07-15T04:51:56.896Z,81.00
2017-07-15T04:54:25.168Z,80.90
2017-07-15T04:56:53.540Z,81.40
2017-07-15T04:59:21.822Z,80.70
2017-07-15T05:01:50.087Z,81.10
2017-07-15T05:04:19.175Z,82.00
2017-07-15T05:06:48.209Z,80.90
2017-07-15T05:09:16.476Z,80.80
2017-07-15T05:11:44.790Z,80.90
2017-07-15T05:14:13.049Z,81.10
2017-07-15T05:16:41.332Z,81.30
2017-07-15T05:19:09.750Z,82.60
2017-07-15T05:21:38.170Z,82.70
2017-07-15T05:24:06.436Z,80.80
2017-07-15T05:26:34.744Z,81.10
2017-07-15T05:29:03.788Z,81.40
2017-07-15T05:31:32.750Z,81.40
2017-07-15T05:34:01.157Z,81.20
2017-07-15T05:36:30.188Z,80.90
2017-07-15T05:38:58.462Z,80.90
2017-07-15T05:41:26.769Z,80.50
2017-07-15T05:43:55.801Z,82.10
2017-07-15T05:46:24.976Z,81.90
2017-07-15T05:48:53.293Z,81.20
2017-07-15T05:51:22.328Z,80.30
2017-07-15T05:53:50.605Z,80.30
2017-07-15T05:56:18.912Z,81.20
2017-07-15T05:58:47.184Z,80.70
2017-07-15T06:01:15.456Z,79.80
2017-07-15T06:03:43.765Z,80.80
2017-07-15T06:06:12.803Z,80.40
2017-07-15T06:08:41.081Z,79.60
2017-07-15T06:11:09.398Z,77.80
2017-07-15T06:13:37.669Z,77.50
2017-07-15T06:16:06.188Z,78.10
2017-07-15T06:18:34.496Z,78.30
2017-07-15T06:21:02.772Z,76.20
2017-07-15T06:23:31.040Z,74.70
2017-07-15T06:25:59.357Z,73.70
2017-07-15T06:28:28.385Z,74.20
2017-07-15T06:30:56.657Z,74.20
2017-07-15T06:33:24.969Z,71.70
2017-07-15T06:35:53.236Z,72.50
2017-07-15T06:38:21.509Z,71.20
2017-07-15T06:40:49.932Z,71.80
2017-07-15T06:43:18.973Z,70.80
2017-07-15T06:45:47.356Z,70.70
2017-07-15T06:48:15.664Z,71.60
2017-07-15T06:50:43.925Z,69.90
2017-07-15T06:53:12.217Z,68.90
2017-07-15T06:55:40.527Z,67.90
2017-07-15T06:58:09.573Z,68.80
2017-07-15T07:00:37.852Z,68.80
2017-07-15T07:03:06.153Z,67.90
2017-07-15T07:05:34.420Z,67.90
2017-07-15T07:08:02.689Z,65.30
2017-07-15T07:10:31.015Z,65.90
2017-07-15T07:12:59.268Z,64.00
2017-07-15T07:15:28.317Z,64.20
2017-07-15T07:17:56.613Z,64.00
2017-07-15T07:20:25.657Z,65.50
2017-07-15T07:22:53.921Z,65.40
2017-07-15T07:25:22.229Z,63.30
2017-07-15T07:27:51.284Z,64.60
2017-07-15T07:30:19.536Z,64.50
2017-07-15T07:32:47.845Z,62.60
2017-07-15T07:35:16.113Z,63.00
2017-07-15T07:37:44.385Z,65.70
2017-07-15T07:40:13.722Z,65.30
2017-07-15T07:42:42.761Z,61.10
2017-07-15T07:45:11.040Z,61.10
2017-07-15T07:47:39.345Z,61.00
2017-07-15T07:50:08.385Z,59.50
2017-07-15T07:52:36.769Z,59.50
2017-07-15T07:55:05.865Z,59.30
2017-07-15T07:57:34.901Z,58.10
2017-07-15T08:00:03.163Z,57.90
2017-07-15T08:02:31.477Z,56.40
2017-07-15T08:04:59.760Z,58.20
2017-07-15T08:07:28.029Z,56.40
2017-07-15T08:09:56.353Z,53.90
2017-07-15T08:12:25.376Z,54.40
2017-07-15T08:14:53.644Z,54.30
2017-07-15T08:17:21.957Z,54.70
2017-07-15T08:19:50.227Z,55.00
2017-07-15T08:22:18.497Z,55.60
2017-07-15T08:24:47.909Z,54.90
2017-07-15T08:27:16.173Z,54.80
2017-07-15T08:29:44.437Z,54.50
2017-07-15T08:32:12.741Z,51.20
2017-07-15T08:34:41.837Z,50.90
2017-07-15T08:37:10.109Z,50.90
2017-07-15T08:39:38.416Z,48.30
2017-07-15T08:42:06.692Z,51.20
2017-07-15T08:44:34.984Z,51.20
2017-07-15T08:47:04.237Z,51.40
2017-07-15T08:49:33.279Z,46.90
2017-07-15T08:52:01.556Z,47.40
2017-07-15T08:54:29.859Z,50.10
2017-07-15T08:56:59.174Z,50.60
2017-07-15T08:59:27.440Z,49.00
2017-07-15T09:01:55.735Z,48.20
2017-07-15T09:04:24.005Z,46.60
2017-07-15T09:06:52.274Z,46.50
2017-07-15T09:09:21.361Z,48.10
2017-07-15T09:11:50.403Z,47.40
2017-07-15T09:14:18.669Z,47.20
2017-07-15T09:16:46.969Z,47.50
2017-07-15T09:19:15.268Z,48.90
2017-07-15T09:21:43.543Z,48.40
2017-07-15T09:24:11.844Z,48.00
2017-07-15T09:26:40.114Z,49.00
2017-07-15T09:29:09.149Z,49.40
2017-07-15T09:31:37.462Z,49.40
2017-07-15T09:34:05.724Z,50.10
2017-07-15T09:36:33.989Z,52.50
2017-07-15T09:39:02.293Z,54.40
2017-07-15T09:41:30.560Z,53.50
2017-07-15T09:43:58.825Z,51.20
2017-07-15T09:46:27.125Z,48.30
2017-07-15T09:48:55.404Z,44.80
2017-07-15T09:51:23.719Z,43.50
2017-07-15T09:53:52.009Z,45.80
2017-07-15T09:56:20.285Z,46.70
2017-07-15T09:58:48.548Z,48.70
2017-07-15T10:01:16.848Z,48.40
2017-07-15T10:03:45.117Z,50.20
2017-07-15T10:06:13.389Z,50.50
2017-07-15T10:08:41.693Z,48.50
2017-07-15T10:11:10.025Z,47.90
2017-07-15T10:13:38.289Z,46.50
2017-07-15T10:16:07.367Z,44.80
2017-07-15T10:18:36.396Z,45.50
2017-07-15T10:21:04.668Z,45.00
2017-07-15T10:23:32.980Z,46.10
2017-07-15T10:26:01.248Z,48.30
2017-07-15T10:28:29.512Z,48.50
2017-07-15T10:30:57.817Z,49.10
2017-07-15T10:33:26.085Z,47.70
2017-07-15T10:35:54.356Z,48.80
2017-07-15T10:38:22.672Z,49.50
2017-07-15T10:40:50.940Z,48.10
2017-07-15T10:43:19.209Z,48.50
2017-07-15T10:45:47.541Z,48.40
2017-07-15T10:48:15.817Z,50.50
2017-07-15T10:50:44.081Z,49.40
2017-07-15T10:53:12.388Z,47.40
2017-07-15T10:55:40.662Z,51.20
2017-07-15T10:58:09.712Z,48.90
2017-07-15T11:00:38.027Z,48.90
2017-07-15T11:03:06.293Z,48.80
2017-07-15T11:05:34.564Z,49.90
2017-07-15T11:08:02.865Z,48.40
2017-07-15T11:10:31.160Z,49.00
2017-07-15T11:13:00.201Z,47.30
2017-07-15T11:15:28.597Z,47.30
2017-07-15T11:17:57.628Z,47.80
2017-07-15T11:20:25.900Z,47.70
2017-07-15T11:22:54.203Z,48.30
2017-07-15T11:25:23.238Z,49.60
2017-07-15T11:27:51.508Z,49.60
2017-07-15T11:30:19.813Z,49.40
2017-07-15T11:32:48.085Z,49.20
2017-07-15T11:35:16.349Z,48.80
2017-07-15T11:37:44.672Z,49.00
2017-07-15T11:40:12.949Z,48.00
2017-07-15T11:42:41.985Z,48.90
2017-07-15T11:45:10.295Z,49.40
2017-07-15T11:47:39.333Z,52.10
2017-07-15T11:50:07.604Z,52.00
2017-07-15T11:52:35.909Z,50.60
2017-07-15T11:55:04.181Z,49.70
2017-07-15T11:57:32.457Z,49.40
2017-07-15T12:00:00.756Z,49.20
2017-07-15T12:02:29.025Z,49.50
2017-07-15T12:04:58.063Z,50.80
2017-07-15T12:07:26.377Z,50.50
2017-07-15T12:09:56.421Z,49.40
2017-07-15T12:12:24.685Z,49.40
2017-07-15T12:14:52.998Z,51.00
2017-07-15T12:17:22.029Z,48.00
2017-07-15T12:19:50.297Z,47.90
2017-07-15T12:22:18.600Z,48.50
2017-07-15T12:24:47.732Z,49.20
2017-07-15T12:27:16.004Z,49.10
2017-07-15T12:29:44.309Z,47.00
2017-07-15T12:32:13.345Z,45.80
2017-07-15T12:34:41.616Z,45.60
2017-07-15T12:37:09.928Z,44.90
2017-07-15T12:39:38.200Z,44.90
2017-07-15T12:42:06.467Z,46.40
2017-07-15T12:44:34.777Z,49.00
2017-07-15T12:47:03.041Z,47.50
2017-07-15T12:49:31.309Z,47.80
2017-07-15T12:52:00.395Z,43.70
2017-07-15T12:54:28.673Z,43.70
2017-07-15T12:56:56.941Z,42.20
2017-07-15T12:59:25.249Z,45.90
2017-07-15T13:01:53.524Z,45.10
2017-07-15T13:04:22.699Z,45.40
2017-07-15T13:06:51.014Z,45.00
2017-07-15T13:09:19.288Z,45.00
2017-07-15T13:11:47.561Z,47.40
2017-07-15T13:14:15.869Z,48.00
2017-07-15T13:16:44.913Z,45.40
2017-07-15T13:19:13.185Z,45.30
2017-07-15T13:21:41.493Z,43.80
2017-07-15T13:24:09.772Z,45.20
2017-07-15T13:26:38.037Z,45.20
2017-07-15T13:29:06.365Z,45.30
2017-07-15T13:31:35.400Z,43.70
2017-07-15T13:34:03.664Z,43.60
2017-07-15T13:36:31.985Z,41.80
2017-07-15T13:39:00.264Z,42.80
2017-07-15T13:41:28.525Z,42.80
2017-07-15T13:43:56.846Z,42.00
2017-07-15T13:46:25.872Z,43.80
2017-07-15T13:48:54.137Z,43.70
2017-07-15T13:51:22.465Z,44.70
2017-07-15T13:53:50.729Z,43.30
2017-07-15T13:56:18.996Z,43.40
2017-07-15T13:58:47.317Z,46.50
2017-07-15T14:01:15.586Z,44.60
2017-07-15T14:03:44.620Z,42.80
2017-07-15T14:06:12.941Z,42.80
2017-07-15T14:08:41.207Z,44.50
2017-07-15T14:11:09.817Z,44.30
2017-07-15T14:13:38.109Z,44.20
2017-07-15T14:16:06.382Z,44.20
2017-07-15T14:18:35.412Z,44.20
2017-07-15T14:21:03.712Z,44.20
2017-07-15T14:23:31.980Z,45.10
2017-07-15T14:26:01.021Z,44.20
2017-07-15T14:28:29.520Z,44.10
2017-07-15T14:30:58.553Z,43.20
2017-07-15T14:33:26.920Z,42.40
2017-07-15T14:35:55.229Z,43.20
2017-07-15T14:38:24.262Z,40.80
2017-07-15T14:40:53.355Z,42.90
2017-07-15T14:43:21.854Z,42.90
2017-07-15T14:45:50.892Z,38.30
2017-07-15T14:48:19.157Z,38.20
2017-07-15T14:50:47.481Z,41.40
2017-07-15T14:53:15.755Z,40.20
2017-07-15T14:55:44.032Z,40.10
2017-07-15T14:58:12.354Z,42.60
2017-07-15T15:00:41.385Z,39.80
2017-07-15T15:03:09.652Z,39.80
2017-07-15T15:05:37.953Z,38.80
2017-07-15T15:08:06.985Z,41.20
2017-07-15T15:10:35.260Z,41.10
2017-07-15T15:13:03.568Z,43.60
2017-07-15T15:15:31.895Z,43.90
2017-07-15T15:18:00.152Z,42.40
2017-07-15T15:20:28.652Z,43.80
2017-07-15T15:22:56.917Z,42.20
2017-07-15T15:25:25.205Z,43.90
2017-07-15T15:27:53.500Z,44.40
2017-07-15T15:30:21.769Z,44.00
2017-07-15T15:32:50.037Z,45.90
2017-07-15T15:35:19.124Z,45.60
2017-07-15T15:37:48.160Z,48.10
2017-07-15T15:40:16.433Z,47.90
2017-07-15T15:42:44.746Z,44.90
2017-07-15T15:45:13.776Z,45.60
2017-07-15T15:47:42.053Z,45.60
2017-07-15T15:50:10.370Z,44.40
2017-07-15T15:52:38.632Z,45.90
2017-07-15T15:55:06.900Z,45.00
2017-07-15T15:57:35.209Z,44.20
2017-07-15T16:00:04.241Z,44.90
2017-07-15T16:02:32.517Z,44.10
2017-07-15T16:05:00.816Z,44.20
2017-07-15T16:07:30.081Z,45.90
2017-07-15T16:09:58.352Z,45.80
2017-07-15T16:12:26.669Z,45.80
2017-07-15T16:14:54.937Z,44.60
2017-07-15T16:17:23.208Z,45.60
2017-07-15T16:19:51.524Z,45.90
2017-07-15T16:22:20.064Z,47.00
2017-07-15T16:24:49.105Z,44.60
2017-07-15T16:27:17.445Z,44.10
2017-07-15T16:29:45.714Z,44.60
2017-07-15T16:32:13.984Z,44.10
2017-07-15T16:34:42.334Z,43.60
2017-07-15T16:37:11.358Z,44.10
2017-07-15T16:39:39.637Z,44.10
2017-07-15T16:42:08.706Z,44.20
2017-07-15T16:44:36.973Z,44.20
2017-07-15T16:47:05.236Z,44.20
2017-07-15T16:49:34.533Z,44.90
2017-07-15T16:52:03.563Z,46.50
2017-07-15T16:54:32.214Z,46.40
2017-07-15T16:57:00.507Z,46.70
2017-07-15T16:59:28.781Z,45.90
2017-07-15T17:01:57.048Z,46.80
2017-07-15T17:04:25.368Z,46.60
2017-07-15T17:06:53.637Z,47.00
2017-07-15T17:09:21.905Z,44.80
2017-07-15T17:11:50.205Z,46.10
2017-07-15T17:14:19.246Z,48.10
2017-07-15T17:16:47.512Z,48.00
2017-07-15T17:19:15.820Z,46.70
2017-07-15T17:21:44.097Z,47.30
2017-07-15T17:24:12.386Z,47.90
2017-07-15T17:26:40.894Z,47.60
2017-07-15T17:29:09.933Z,48.30
2017-07-15T17:31:38.205Z,48.30
2017-07-15T17:34:06.518Z,47.00
2017-07-15T17:36:34.803Z,48.30
2017-07-15T17:39:03.081Z,47.20
2017-07-15T17:41:31.397Z,47.80
2017-07-15T17:43:59.665Z,48.00
2017-07-15T17:46:27.929Z,47.70
2017-07-15T17:48:56.246Z,48.60
2017-07-15T17:51:24.517Z,49.20
2017-07-15T17:53:52.785Z,48.60
2017-07-15T17:56:21.871Z,48.60
2017-07-15T17:58:50.909Z,48.30
2017-07-15T18:01:19.180Z,48.20
2017-07-15T18:03:47.498Z,48.60
2017-07-15T18:06:15.779Z,48.70
2017-07-15T18:08:44.065Z,50.00
2017-07-15T18:11:12.381Z,49.90
2017-07-15T18:13:40.982Z,50.40
2017-07-15T18:16:09.600Z,52.10
2017-07-15T18:18:38.702Z,51.20
2017-07-15T18:21:06.977Z,51.20
2017-07-15T18:23:35.249Z,52.00
2017-07-15T18:26:03.561Z,51.60
2017-07-15T18:28:32.604Z,52.10
2017-07-15T18:31:00.871Z,52.00
2017-07-15T18:33:29.189Z,51.20
2017-07-15T18:35:57.466Z,52.70
2017-07-15T18:38:25.733Z,51.00
2017-07-15T18:40:54.045Z,52.00
2017-07-15T18:43:23.096Z,52.00
2017-07-15T18:45:51.372Z,52.00
2017-07-15T18:48:19.690Z,52.70
2017-07-15T18:50:47.970Z,52.00
2017-07-15T18:53:16.233Z,52.00
2017-07-15T18:55:44.550Z,51.90
2017-07-15T18:58:12.837Z,51.90
2017-07-15T19:00:41.623Z,51.90
2017-07-15T19:03:09.941Z,53.20
2017-07-15T19:05:38.298Z,54.00
2017-07-15T19:08:07.573Z,53.90
2017-07-15T19:10:36.637Z,54.50
2017-07-15T19:13:04.908Z,53.70
2017-07-15T19:15:33.373Z,54.00
2017-07-15T19:18:01.681Z,55.10
2017-07-15T19:20:29.957Z,54.50
2017-07-15T19:22:58.221Z,54.90
2017-07-15T19:25:26.538Z,55.30
2017-07-15T19:27:55.639Z,56.80
2017-07-15T19:30:23.906Z,56.80
2017-07-15T19:32:52.220Z,56.10
2017-07-15T19:35:20.494Z,56.70
2017-07-15T19:37:49.530Z,58.10
2017-07-15T19:40:25.493Z,58.10
2017-07-15T19:42:53.765Z,58.00
2017-07-15T19:45:22.042Z,58.70
2017-07-15T19:47:51.129Z,59.50
2017-07-15T19:50:19.405Z,59.40
2017-07-15T19:52:47.684Z,59.40
2017-07-15T19:55:16.010Z,59.80
2017-07-15T19:57:44.297Z,59.40
2017-07-15T20:00:12.573Z,60.30
2017-07-15T20:02:40.894Z,60.40
2017-07-15T20:05:09.931Z,62.00
2017-07-15T20:07:38.225Z,62.00
2017-07-15T20:10:06.701Z,62.50
2017-07-15T20:12:35.733Z,64.60
2017-07-15T20:15:04.000Z,64.50
2017-07-15T20:17:32.314Z,62.70
2017-07-15T20:20:00.597Z,63.80
2017-07-15T20:22:29.225Z,63.60
2017-07-15T20:24:58.320Z,64.30
2017-07-15T20:27:26.589Z,64.20
2017-07-15T20:29:54.853Z,63.80
2017-07-15T20:32:23.176Z,64.50
2017-07-15T20:34:51.451Z,65.10
2017-07-15T20:37:20.481Z,65.60
2017-07-15T20:39:48.897Z,65.50
2017-07-15T20:42:17.176Z,64.60
2017-07-15T20:44:46.089Z,65.70
2017-07-15T20:47:14.389Z,66.20
2017-07-15T20:49:43.427Z,66.20
2017-07-15T20:52:17.525Z,66.00
2017-07-15T20:54:45.805Z,65.30
2017-07-15T20:57:14.076Z,65.40
2017-07-15T20:59:42.747Z,64.90
2017-07-15T21:02:11.068Z,66.00
2017-07-15T21:04:40.032Z,66.40
2017-07-15T21:07:08.366Z,66.90
2017-07-15T21:09:37.392Z,68.50
2017-07-15T21:12:05.664Z,68.40
2017-07-15T21:14:34.093Z,68.50
2017-07-15T21:17:02.360Z,68.20
2017-07-15T21:19:30.629Z,68.50
2017-07-15T21:21:59.047Z,68.50
2017-07-15T21:24:28.117Z,68.50
2017-07-15T21:26:56.385Z,68.40
2017-07-15T21:29:25.477Z,68.50
2017-07-15T21:31:54.507Z,68.50
2017-07-15T21:34:22.778Z,68.40
2017-07-15T21:36:51.092Z,68.40
2017-07-15T21:39:19.360Z,68.40
2017-07-15T21:41:47.633Z,68.40
2017-07-15T21:44:16.028Z,68.30
2017-07-15T21:46:44.332Z,68.70
2017-07-15T21:49:13.375Z,68.60
2017-07-15T21:51:41.673Z,68.70
2017-07-15T21:54:10.708Z,68.30
2017-07-15T21:56:38.977Z,68.30
2017-07-15T21:59:07.288Z,68.30
2017-07-15T22:01:35.560Z,68.30
2017-07-15T22:04:03.828Z,68.30
2017-07-15T22:06:32.145Z,68.30
2017-07-15T22:09:01.176Z,69.30
2017-07-15T22:11:29.453Z,69.30
2017-07-15T22:13:57.945Z,69.20
2017-07-15T22:16:26.213Z,68.90
2017-07-15T22:18:55.247Z,69.10
2017-07-15T22:21:23.553Z,68.90
2017-07-15T22:23:52.596Z,68.80
2017-07-15T22:26:20.852Z,68.60
2017-07-15T22:28:49.204Z,69.70
2017-07-15T22:31:17.481Z,70.40
2017-07-15T22:33:45.748Z,70.30
2017-07-15T22:36:14.056Z,70.90
2017-07-15T22:38:42.333Z,71.00
2017-07-15T22:41:10.604Z,71.70
2017-07-15T22:43:38.925Z,72.00
2017-07-15T22:46:07.957Z,72.80
2017-07-15T22:48:36.228Z,72.60
2017-07-15T22:51:04.552Z,73.50
2017-07-15T22:53:32.829Z,74.40
2017-07-15T22:56:01.095Z,74.60
2017-07-15T22:58:29.411Z,75.60
2017-07-15T23:00:57.668Z,74.90
2017-07-15T23:03:26.701Z,75.20
2017-07-15T23:05:55.002Z,75.00
2017-07-15T23:08:23.272Z,76.10
2017-07-15T23:10:51.540Z,76.10
2017-07-15T23:13:20.697Z,76.10
2017-07-15T23:15:48.993Z,75.90
2017-07-15T23:18:18.024Z,75.90
2017-07-15T23:20:46.516Z,75.90
2017-07-15T23:23:15.862Z,77.40
2017-07-15T23:25:44.135Z,77.30
2017-07-15T23:28:12.464Z,76.50
2017-07-15T23:30:40.750Z,76.80
2017-07-15T23:33:09.012Z,76.30
2017-07-15T23:35:37.523Z,76.60
2017-07-15T23:38:06.560Z,77.20
2017-07-15T23:40:34.837Z,77.10
2017-07-15T23:43:03.144Z,76.60
2017-07-15T23:45:31.413Z,77.10
2017-07-15T23:47:59.688Z,78.30
2017-07-15T23:50:28.172Z,78.40
2017-07-15T23:52:56.429Z,79.00
2017-07-15T23:55:24.716Z,79.30
2017-07-15T23:57:53.023Z,79.40
